createdAt,value
2023-03-27T00:00:03.356Z,86.46
2023-03-27T00:01:03.652Z,86.15
2023-03-27T00:02:03.366Z,86.77
2023-03-27T00:03:03.429Z,86.08
2023-03-27T00:04:03.388Z,86.77
2023-03-27T00:05:03.296Z,86.77
2023-03-27T00:06:03.625Z,88.23
2023-03-27T00:07:03.448Z,86.40
2023-03-27T00:08:03.280Z,85.56
2023-03-27T00:09:03.257Z,86.35
2023-03-27T00:10:03.243Z,86.08
2023-03-27T00:11:03.764Z,85.94
2023-03-27T00:12:03.225Z,85.52
2023-03-27T00:13:03.213Z,85.73
2023-03-27T00:14:03.202Z,86.25
2023-03-27T00:15:03.201Z,86.25
2023-03-27T00:16:03.479Z,85.52
2023-03-27T00:17:03.231Z,85.94
2023-03-27T00:18:03.254Z,86.46
2023-03-27T00:19:03.157Z,85.31
2023-03-27T00:20:03.147Z,86.04
2023-03-27T00:21:03.633Z,85.42
2023-03-27T00:22:03.123Z,86.25
2023-03-27T00:23:03.145Z,86.04
2023-03-27T00:24:03.101Z,86.98
2023-03-27T00:25:03.091Z,86.15
2023-03-27T00:26:03.385Z,86.60
2023-03-27T00:27:03.074Z,85.88
2023-03-27T00:28:03.073Z,85.77
2023-03-27T00:29:03.052Z,85.46
2023-03-27T00:30:03.039Z,85.14
2023-03-27T00:31:03.566Z,85.04
2023-03-27T00:32:03.029Z,85.25
2023-03-27T00:33:03.185Z,85.35
2023-03-27T00:34:03.003Z,86.50
2023-03-27T00:35:03.019Z,86.08
2023-03-27T00:36:03.337Z,86.29
2023-03-27T00:37:02.972Z,85.88
2023-03-27T00:38:02.964Z,86.50
2023-03-27T00:39:02.948Z,86.40
2023-03-27T00:40:02.943Z,85.81
2023-03-27T00:41:03.386Z,85.98
2023-03-27T00:42:02.915Z,86.22
2023-03-27T00:43:02.948Z,85.81
2023-03-27T00:44:02.896Z,86.43
2023-03-27T00:45:02.900Z,85.81
2023-03-27T00:46:03.245Z,86.12
2023-03-27T00:47:02.874Z,85.71
2023-03-27T00:48:02.923Z,85.81
2023-03-27T00:49:02.854Z,86.43
2023-03-27T00:50:02.850Z,86.65
2023-03-27T00:51:03.554Z,86.75
2023-03-27T00:52:02.826Z,87.16
2023-03-27T00:53:02.812Z,86.33
2023-03-27T00:54:02.800Z,86.65
2023-03-27T00:55:02.821Z,86.02
2023-03-27T00:56:03.548Z,87.16
2023-03-27T00:57:02.810Z,86.75
2023-03-27T00:58:02.752Z,87.27
2023-03-27T00:59:02.752Z,87.99
2023-03-27T01:00:02.733Z,87.27
2023-03-27T01:01:03.214Z,86.65
2023-03-27T01:02:02.734Z,85.81
2023-03-27T01:03:02.739Z,85.60
2023-03-27T01:04:02.685Z,85.60
2023-03-27T01:05:02.683Z,86.22
2023-03-27T01:06:02.872Z,85.81
2023-03-27T01:07:02.659Z,86.02
2023-03-27T01:08:02.648Z,86.54
2023-03-27T01:09:02.645Z,86.65
2023-03-27T01:10:02.650Z,86.54
2023-03-27T01:11:02.968Z,86.43
2023-03-27T01:12:02.609Z,85.60
2023-03-27T01:13:02.602Z,84.87
2023-03-27T01:14:02.591Z,85.91
2023-03-27T01:15:02.582Z,86.33
2023-03-27T01:16:03.334Z,86.12
2023-03-27T01:17:02.558Z,86.12
2023-03-27T01:18:02.626Z,85.81
2023-03-27T01:19:02.537Z,85.19
2023-03-27T01:20:02.520Z,86.02
2023-03-27T01:21:03.410Z,85.81
2023-03-27T01:22:02.521Z,85.81
2023-03-27T01:23:02.500Z,85.19
2023-03-27T01:24:02.495Z,85.19
2023-03-27T01:25:02.484Z,85.19
2023-03-27T01:26:03.467Z,85.19
2023-03-27T01:27:02.509Z,84.35
2023-03-27T01:28:02.444Z,84.87
2023-03-27T01:29:02.799Z,86.33
2023-03-27T01:30:02.422Z,84.56
2023-03-27T01:31:02.910Z,84.98
2023-03-27T01:32:02.399Z,83.94
2023-03-27T01:33:02.436Z,84.35
2023-03-27T01:34:02.389Z,84.66
2023-03-27T01:35:03.535Z,83.83
2023-03-27T01:36:02.468Z,84.87
2023-03-27T01:37:02.753Z,83.62
2023-03-27T01:38:02.336Z,84.87
2023-03-27T01:39:02.329Z,84.56
2023-03-27T01:40:02.324Z,83.20
2023-03-27T01:41:02.310Z,83.10
2023-03-27T01:42:02.628Z,83.62
2023-03-27T01:43:02.309Z,82.89
2023-03-27T01:44:02.279Z,84.25
2023-03-27T01:45:02.283Z,84.56
2023-03-27T01:46:02.267Z,84.56
2023-03-27T01:47:02.557Z,84.14
2023-03-27T01:48:02.290Z,84.14
2023-03-27T01:49:02.230Z,84.14
2023-03-27T01:50:02.218Z,84.25
2023-03-27T01:51:02.219Z,84.87
2023-03-27T01:52:02.560Z,84.08
2023-03-27T01:53:02.199Z,83.66
2023-03-27T01:54:02.177Z,83.56
2023-03-27T01:55:02.174Z,82.82
2023-03-27T01:56:02.154Z,83.35
2023-03-27T01:57:02.737Z,83.14
2023-03-27T01:58:02.132Z,84.18
2023-03-27T01:59:02.134Z,83.25
2023-03-27T02:00:18.453Z,84.70
2023-03-27T02:01:02.122Z,83.56
2023-03-27T02:02:02.596Z,84.18
2023-03-27T02:03:02.144Z,83.66
2023-03-27T02:04:02.076Z,84.08
2023-03-27T02:05:02.189Z,83.97
2023-03-27T02:06:02.067Z,84.81
2023-03-27T02:07:02.350Z,84.12
2023-03-27T02:08:02.039Z,83.49
2023-03-27T02:09:02.029Z,83.49
2023-03-27T02:10:02.014Z,82.97
2023-03-27T02:11:02.033Z,82.97
2023-03-27T02:12:02.345Z,83.07
2023-03-27T02:13:01.991Z,84.33
2023-03-27T02:14:01.981Z,84.33
2023-03-27T02:15:24.755Z,83.91
2023-03-27T02:16:01.970Z,84.01
2023-03-27T02:17:02.663Z,83.28
2023-03-27T02:18:01.969Z,83.91
2023-03-27T02:19:01.933Z,84.47
2023-03-27T02:20:01.920Z,84.26
2023-03-27T02:21:01.918Z,84.57
2023-03-27T02:22:02.726Z,84.36
2023-03-27T02:23:01.968Z,84.57
2023-03-27T02:24:01.886Z,84.26
2023-03-27T02:25:01.879Z,84.05
2023-03-27T02:26:01.867Z,84.47
2023-03-27T02:27:02.734Z,84.05
2023-03-27T02:28:01.838Z,84.26
2023-03-27T02:29:01.820Z,84.88
2023-03-27T02:30:01.813Z,84.26
2023-03-27T02:31:06.624Z,85.20
2023-03-27T02:32:02.186Z,85.03
2023-03-27T02:33:01.881Z,83.84
2023-03-27T02:34:01.784Z,84.57
2023-03-27T02:35:01.766Z,84.19
2023-03-27T02:36:01.830Z,84.47
2023-03-27T02:37:02.603Z,84.50
2023-03-27T02:38:01.733Z,85.13
2023-03-27T02:39:01.727Z,84.72
2023-03-27T02:40:01.724Z,84.72
2023-03-27T02:41:01.710Z,84.40
2023-03-27T02:42:02.067Z,84.19
2023-03-27T02:43:01.680Z,84.40
2023-03-27T02:44:01.685Z,84.30
2023-03-27T02:45:01.689Z,84.72
2023-03-27T02:46:01.732Z,84.72
2023-03-27T02:47:01.951Z,84.92
2023-03-27T02:48:01.671Z,85.13
2023-03-27T02:49:01.629Z,85.06
2023-03-27T02:50:01.677Z,85.69
2023-03-27T02:51:01.592Z,85.59
2023-03-27T02:52:01.921Z,85.27
2023-03-27T02:53:01.580Z,85.27
2023-03-27T02:54:01.575Z,85.90
2023-03-27T02:55:01.576Z,85.59
2023-03-27T02:56:01.549Z,85.90
2023-03-27T02:57:01.869Z,86.43
2023-03-27T02:58:01.542Z,86.21
2023-03-27T02:59:01.523Z,86.21
2023-03-27T03:00:01.525Z,86.36
2023-03-27T03:01:01.519Z,86.46
2023-03-27T03:02:01.927Z,86.25
2023-03-27T03:03:01.572Z,86.46
2023-03-27T03:04:01.487Z,86.46
2023-03-27T03:05:01.451Z,86.46
2023-03-27T03:06:01.458Z,86.36
2023-03-27T03:07:01.785Z,86.57
2023-03-27T03:08:01.432Z,86.46
2023-03-27T03:09:01.426Z,86.67
2023-03-27T03:10:01.436Z,86.57
2023-03-27T03:11:01.395Z,86.57
2023-03-27T03:12:01.904Z,86.67
2023-03-27T03:13:01.391Z,87.02
2023-03-27T03:14:01.375Z,87.45
2023-03-27T03:15:01.359Z,87.55
2023-03-27T03:16:01.369Z,87.45
2023-03-27T03:17:02.270Z,87.02
2023-03-27T03:18:01.372Z,87.34
2023-03-27T03:19:01.317Z,87.23
2023-03-27T03:20:01.307Z,86.82
2023-03-27T03:21:01.297Z,87.02
2023-03-27T03:22:01.648Z,87.02
2023-03-27T03:23:01.274Z,87.02
2023-03-27T03:24:01.365Z,87.02
2023-03-27T03:25:01.258Z,87.13
2023-03-27T03:26:01.246Z,87.02
2023-03-27T03:27:01.951Z,87.02
2023-03-27T03:28:01.240Z,87.45
2023-03-27T03:29:01.808Z,87.27
2023-03-27T03:30:01.238Z,87.27
2023-03-27T03:31:01.222Z,87.48
2023-03-27T03:32:01.670Z,87.69
2023-03-27T03:33:01.208Z,87.69
2023-03-27T03:34:01.168Z,87.90
2023-03-27T03:35:01.146Z,87.59
2023-03-27T03:36:01.217Z,87.80
2023-03-27T03:37:01.443Z,87.80
2023-03-27T03:38:01.128Z,87.90
2023-03-27T03:39:01.108Z,88.11
2023-03-27T03:40:01.110Z,88.32
2023-03-27T03:41:01.081Z,88.53
2023-03-27T03:42:01.424Z,88.78
2023-03-27T03:43:01.066Z,88.78
2023-03-27T03:44:01.073Z,88.67
2023-03-27T03:45:01.050Z,88.88
2023-03-27T03:46:01.047Z,89.20
2023-03-27T03:47:01.043Z,89.51
2023-03-27T03:48:01.076Z,89.40
2023-03-27T03:49:01.015Z,89.83
2023-03-27T03:50:00.998Z,90.34
2023-03-27T03:51:00.979Z,90.28
2023-03-27T03:52:03.313Z,89.86
2023-03-27T03:53:00.973Z,90.08
2023-03-27T03:54:00.952Z,90.08
2023-03-27T03:55:00.937Z,90.18
2023-03-27T03:56:00.939Z,90.08
2023-03-27T03:57:01.338Z,90.08
2023-03-27T03:58:00.925Z,90.08
2023-03-27T03:59:00.897Z,90.39
2023-03-27T04:00:00.898Z,90.28
2023-03-27T04:01:00.876Z,90.28
2023-03-27T04:02:01.230Z,90.28
2023-03-27T04:03:00.946Z,90.18
2023-03-27T04:04:00.848Z,90.39
2023-03-27T04:05:00.842Z,90.81
2023-03-27T04:06:00.838Z,91.02
2023-03-27T04:07:01.490Z,90.91
2023-03-27T04:08:00.806Z,90.59
2023-03-27T04:09:00.791Z,90.70
2023-03-27T04:10:00.800Z,90.81
2023-03-27T04:11:00.777Z,90.91
2023-03-27T04:12:01.131Z,91.02
2023-03-27T04:13:00.826Z,91.06
2023-03-27T04:14:00.755Z,90.70
2023-03-27T04:15:00.736Z,90.81
2023-03-27T04:16:00.724Z,90.59
2023-03-27T04:17:01.010Z,90.28
2023-03-27T04:18:00.767Z,90.08
2023-03-27T04:19:00.684Z,90.08
2023-03-27T04:20:00.702Z,90.39
2023-03-27T04:21:00.677Z,89.97
2023-03-27T04:22:01.099Z,89.86
2023-03-27T04:23:00.652Z,89.97
2023-03-27T04:24:00.639Z,89.76
2023-03-27T04:25:00.624Z,89.86
2023-03-27T04:26:00.810Z,89.86
2023-03-27T04:27:00.623Z,89.97
2023-03-27T04:28:00.606Z,89.86
2023-03-27T04:29:00.592Z,89.65
2023-03-27T04:30:00.587Z,89.76
2023-03-27T04:31:00.609Z,89.45
2023-03-27T04:32:00.584Z,89.45
2023-03-27T04:33:00.584Z,89.23
2023-03-27T04:34:00.565Z,89.23
2023-03-27T04:35:00.472Z,89.03
2023-03-27T04:36:05.662Z,89.03
2023-03-27T04:37:00.511Z,89.34
2023-03-27T04:38:00.480Z,89.34
2023-03-27T04:39:00.449Z,89.34
2023-03-27T04:40:00.458Z,89.55
2023-03-27T04:41:00.421Z,89.55
2023-03-27T04:42:00.433Z,89.65
2023-03-27T04:43:00.417Z,89.55
2023-03-27T04:44:00.393Z,90.08
2023-03-27T04:45:00.384Z,90.18
2023-03-27T04:46:00.376Z,90.43
2023-03-27T04:47:00.418Z,90.64
2023-03-27T04:48:00.673Z,90.84
2023-03-27T04:49:00.347Z,91.27
2023-03-27T04:50:00.352Z,91.27
2023-03-27T04:51:00.350Z,91.06
2023-03-27T04:52:00.321Z,91.06
2023-03-27T04:53:00.658Z,90.95
2023-03-27T04:54:00.334Z,91.06
2023-03-27T04:55:00.335Z,91.16
2023-03-27T04:56:00.283Z,91.37
2023-03-27T04:57:00.331Z,91.89
2023-03-27T04:58:00.291Z,91.89
2023-03-27T04:59:00.263Z,92.00
2023-03-27T05:00:00.295Z,92.04
2023-03-27T05:01:00.570Z,92.25
2023-03-27T05:02:00.227Z,92.46
2023-03-27T05:03:00.327Z,92.67
2023-03-27T05:04:00.298Z,92.88
2023-03-27T05:05:00.207Z,93.19
2023-03-27T05:06:00.180Z,93.30
2023-03-27T05:07:00.218Z,93.40
2023-03-27T05:08:00.422Z,93.19
2023-03-27T05:09:00.162Z,93.30
2023-03-27T05:10:00.158Z,93.40
2023-03-27T05:11:00.138Z,93.61
2023-03-27T05:12:00.118Z,93.71
2023-03-27T05:13:00.126Z,93.61
2023-03-27T05:14:00.128Z,93.51
2023-03-27T05:15:00.122Z,93.61
2023-03-27T05:16:00.135Z,93.71
2023-03-27T05:17:00.087Z,93.67
2023-03-27T05:18:00.497Z,93.71
2023-03-27T05:19:00.043Z,93.57
2023-03-27T05:20:00.037Z,93.71
2023-03-27T05:21:00.022Z,94.03
2023-03-27T05:22:00.010Z,93.88
2023-03-27T05:23:00.177Z,93.67
2023-03-27T05:24:00.019Z,93.46
2023-03-27T05:24:59.985Z,93.36
2023-03-27T05:26:01.007Z,93.46
2023-03-27T05:26:59.965Z,93.46
2023-03-27T05:27:59.969Z,93.36
2023-03-27T05:28:59.951Z,93.26
2023-03-27T05:29:59.939Z,93.36
2023-03-27T05:31:00.174Z,93.67
2023-03-27T05:32:01.445Z,93.67
2023-03-27T05:33:00.123Z,93.57
2023-03-27T05:33:59.903Z,93.57
2023-03-27T05:34:59.884Z,93.57
2023-03-27T05:35:59.918Z,93.57
2023-03-27T05:36:59.858Z,93.63
2023-03-27T05:37:59.876Z,93.52
2023-03-27T05:38:59.838Z,93.21
2023-03-27T05:39:59.840Z,93.11
2023-03-27T05:40:59.834Z,93.01
2023-03-27T05:41:59.811Z,92.75
2023-03-27T05:43:00.270Z,92.44
2023-03-27T05:43:59.802Z,92.33
2023-03-27T05:44:59.779Z,92.23
2023-03-27T05:45:59.798Z,92.29
2023-03-27T05:46:59.766Z,91.56
2023-03-27T05:48:00.073Z,91.66
2023-03-27T05:48:59.740Z,91.77
2023-03-27T05:49:59.736Z,91.46
2023-03-27T05:50:59.748Z,91.41
2023-03-27T05:51:59.720Z,90.68
2023-03-27T05:52:59.879Z,90.37
2023-03-27T05:53:59.736Z,89.81
2023-03-27T05:54:59.683Z,90.33
2023-03-27T05:56:03.432Z,90.75
2023-03-27T05:56:59.770Z,90.33
2023-03-27T05:57:59.674Z,90.01
2023-03-27T05:58:59.642Z,89.87
2023-03-27T05:59:59.636Z,89.45
2023-03-27T06:00:59.615Z,89.45
2023-03-27T06:01:59.616Z,89.56
2023-03-27T06:02:59.846Z,89.24
2023-03-27T06:03:59.684Z,88.82
2023-03-27T06:04:59.582Z,88.72
2023-03-27T06:05:59.567Z,87.99
2023-03-27T06:06:59.546Z,88.51
2023-03-27T06:07:59.760Z,88.20
2023-03-27T06:08:59.535Z,88.30
2023-03-27T06:09:59.526Z,88.41
2023-03-27T06:10:59.596Z,88.26
2023-03-27T06:11:59.512Z,87.68
2023-03-27T06:12:59.664Z,87.74
2023-03-27T06:13:59.482Z,87.74
2023-03-27T06:14:59.484Z,87.74
2023-03-27T06:15:59.917Z,87.53
2023-03-27T06:16:59.452Z,87.12
2023-03-27T06:17:59.661Z,87.18
2023-03-27T06:18:59.427Z,86.41
2023-03-27T06:19:59.417Z,85.64
2023-03-27T06:20:59.445Z,84.77
2023-03-27T06:21:59.462Z,83.58
2023-03-27T06:23:00.125Z,82.36
2023-03-27T06:23:59.381Z,79.69
2023-03-27T06:24:59.366Z,78.20
2023-03-27T06:25:59.406Z,76.37
2023-03-27T06:26:59.370Z,75.05
2023-03-27T06:27:59.363Z,73.74
2023-03-27T06:28:59.335Z,72.33
2023-03-27T06:29:59.354Z,70.92
2023-03-27T06:30:59.364Z,68.61
2023-03-27T06:31:59.320Z,66.89
2023-03-27T06:32:59.672Z,66.04
2023-03-27T06:33:59.301Z,66.97
2023-03-27T06:34:59.268Z,63.31
2023-03-27T06:35:59.750Z,62.49
2023-03-27T06:36:59.255Z,60.47
2023-03-27T06:37:59.281Z,59.55
2023-03-27T06:38:59.236Z,61.27
2023-03-27T06:39:59.207Z,60.49
2023-03-27T06:40:59.210Z,59.26
2023-03-27T06:41:59.188Z,58.80
2023-03-27T06:42:59.385Z,60.33
2023-03-27T06:43:59.177Z,61.78
2023-03-27T06:44:59.171Z,64.99
2023-03-27T06:45:59.324Z,67.05
2023-03-27T06:46:59.213Z,70.29
2023-03-27T06:48:16.914Z,71.84
2023-03-27T06:48:59.129Z,71.46
2023-03-27T06:49:59.114Z,72.22
2023-03-27T06:50:59.300Z,72.46
2023-03-27T06:51:59.086Z,73.91
2023-03-27T06:52:59.759Z,74.40
2023-03-27T06:53:59.077Z,71.80
2023-03-27T06:54:59.069Z,71.12
2023-03-27T06:55:59.497Z,69.98
2023-03-27T06:56:59.109Z,68.03
2023-03-27T06:57:59.789Z,66.69
2023-03-27T06:58:59.044Z,65.83
2023-03-27T07:00:01.626Z,65.24
2023-03-27T07:00:59.003Z,67.37
2023-03-27T07:01:59.058Z,68.26
2023-03-27T07:02:59.262Z,69.25
2023-03-27T07:03:58.970Z,70.42
2023-03-27T07:05:04.853Z,71.77
2023-03-27T07:05:59.152Z,70.94
2023-03-27T07:06:58.947Z,71.80
2023-03-27T07:08:03.141Z,73.67
2023-03-27T07:08:59.236Z,73.39
2023-03-27T07:09:58.911Z,75.05
2023-03-27T07:11:10.936Z,74.88
2023-03-27T07:11:58.877Z,73.63
2023-03-27T07:12:58.876Z,75.50
2023-03-27T07:13:59.152Z,75.12
2023-03-27T07:14:58.852Z,75.43
2023-03-27T07:15:58.861Z,76.40
2023-03-27T07:16:58.832Z,78.16
2023-03-27T07:17:58.842Z,77.75
2023-03-27T07:19:01.875Z,77.54
2023-03-27T07:19:58.990Z,76.12
2023-03-27T07:20:59.081Z,76.43
2023-03-27T07:21:58.770Z,76.12
2023-03-27T07:22:58.772Z,77.92
2023-03-27T07:23:59.553Z,77.92
2023-03-27T07:24:58.745Z,79.17
2023-03-27T07:25:59.006Z,79.06
2023-03-27T07:26:58.726Z,78.79
2023-03-27T07:27:58.722Z,79.72
2023-03-27T07:29:00.609Z,80.25
2023-03-27T07:29:58.696Z,79.94
2023-03-27T07:30:59.012Z,80.15
2023-03-27T07:32:01.557Z,80.66
2023-03-27T07:32:58.953Z,81.29
2023-03-27T07:33:59.113Z,81.77
2023-03-27T07:34:58.639Z,81.04
2023-03-27T07:35:58.946Z,81.15
2023-03-27T07:36:58.628Z,80.52
2023-03-27T07:37:58.606Z,81.73
2023-03-27T07:38:58.960Z,81.07
2023-03-27T07:39:58.619Z,79.10
2023-03-27T07:40:58.583Z,79.83
2023-03-27T07:41:58.577Z,79.51
2023-03-27T07:42:58.657Z,80.31
2023-03-27T07:43:58.902Z,77.51
2023-03-27T07:44:58.546Z,76.57
2023-03-27T07:45:58.705Z,77.40
2023-03-27T07:46:58.533Z,77.40
2023-03-27T07:47:58.520Z,77.68
2023-03-27T07:48:59.387Z,77.47
2023-03-27T07:49:58.498Z,76.85
2023-03-27T07:51:07.201Z,75.92
2023-03-27T07:51:58.465Z,76.95
2023-03-27T07:52:58.460Z,76.54
2023-03-27T07:53:58.992Z,76.43
2023-03-27T07:54:58.445Z,77.16
2023-03-27T07:55:58.432Z,77.85
2023-03-27T07:56:58.548Z,77.09
2023-03-27T07:58:02.293Z,76.98
2023-03-27T07:58:58.737Z,76.78
2023-03-27T07:59:58.387Z,75.84
2023-03-27T08:00:58.383Z,75.22
2023-03-27T08:01:58.369Z,73.77
2023-03-27T08:02:58.470Z,74.95
2023-03-27T08:03:58.757Z,76.40
2023-03-27T08:04:58.435Z,76.26
2023-03-27T08:05:58.636Z,75.32
2023-03-27T08:06:58.315Z,73.49
2023-03-27T08:07:58.313Z,74.71
2023-03-27T08:08:59.136Z,74.01
2023-03-27T08:09:58.289Z,73.91
2023-03-27T08:10:58.299Z,74.29
2023-03-27T08:11:58.265Z,75.53
2023-03-27T08:12:58.255Z,75.53
2023-03-27T08:13:58.599Z,77.98
2023-03-27T08:14:58.250Z,76.50
2023-03-27T08:15:58.346Z,74.67
2023-03-27T08:17:12.418Z,73.60
2023-03-27T08:17:58.231Z,72.29
2023-03-27T08:18:58.554Z,73.63
2023-03-27T08:19:58.176Z,72.91
2023-03-27T08:20:58.185Z,72.94
2023-03-27T08:21:58.161Z,74.46
2023-03-27T08:22:58.156Z,73.63
2023-03-27T08:23:58.160Z,74.57
2023-03-27T08:24:58.136Z,72.46
2023-03-27T08:25:58.130Z,71.84
2023-03-27T08:26:58.111Z,72.77
2023-03-27T08:27:58.097Z,72.05
2023-03-27T08:28:58.408Z,72.67
2023-03-27T08:29:58.080Z,72.77
2023-03-27T08:31:02.548Z,73.63
2023-03-27T08:31:58.063Z,72.77
2023-03-27T08:32:58.100Z,72.15
2023-03-27T08:33:58.388Z,72.25
2023-03-27T08:34:58.029Z,70.87
2023-03-27T08:35:58.209Z,71.50
2023-03-27T08:36:58.018Z,71.50
2023-03-27T08:37:57.998Z,71.60
2023-03-27T08:38:58.418Z,71.47
2023-03-27T08:39:57.977Z,71.78
2023-03-27T08:40:57.968Z,69.50
2023-03-27T08:41:57.955Z,70.50
2023-03-27T08:42:57.942Z,69.67
2023-03-27T08:43:58.328Z,70.92
2023-03-27T08:44:57.925Z,70.81
2023-03-27T08:45:58.122Z,68.40
2023-03-27T08:46:57.903Z,67.68
2023-03-27T08:47:57.959Z,66.10
2023-03-27T08:48:58.206Z,68.06
2023-03-27T08:49:57.873Z,68.27
2023-03-27T08:50:57.874Z,67.93
2023-03-27T08:51:57.853Z,66.89
2023-03-27T08:52:57.840Z,70.27
2023-03-27T08:53:58.619Z,66.63
2023-03-27T08:54:57.822Z,67.55
2023-03-27T08:55:58.197Z,65.70
2023-03-27T08:56:57.859Z,64.98
2023-03-27T08:57:57.783Z,64.28
2023-03-27T08:58:58.091Z,66.66
2023-03-27T08:59:57.772Z,64.59
2023-03-27T09:00:57.755Z,63.31
2023-03-27T09:01:57.824Z,66.93
2023-03-27T09:02:57.830Z,66.51
2023-03-27T09:03:58.101Z,66.13
2023-03-27T09:04:57.714Z,65.09
2023-03-27T09:05:57.943Z,65.89
2023-03-27T09:06:57.693Z,65.17
2023-03-27T09:07:57.687Z,65.89
2023-03-27T09:08:57.691Z,65.14
2023-03-27T09:09:57.656Z,64.83
2023-03-27T09:10:57.659Z,64.86
2023-03-27T09:11:57.639Z,67.41
2023-03-27T09:12:57.636Z,66.38
2023-03-27T09:13:57.844Z,64.68
2023-03-27T09:14:57.625Z,64.37
2023-03-27T09:15:57.717Z,63.37
2023-03-27T09:16:57.608Z,64.61
2023-03-27T09:17:57.620Z,65.30
2023-03-27T09:18:57.980Z,64.86
2023-03-27T09:19:57.573Z,63.82
2023-03-27T09:20:57.556Z,63.26
2023-03-27T09:21:57.533Z,65.75
2023-03-27T09:22:57.527Z,65.12
2023-03-27T09:23:58.330Z,66.75
2023-03-27T09:24:57.505Z,64.61
2023-03-27T09:25:57.667Z,65.54
2023-03-27T09:27:06.715Z,65.75
2023-03-27T09:27:57.474Z,66.33
2023-03-27T09:28:57.824Z,63.96
2023-03-27T09:30:04.904Z,63.34
2023-03-27T09:30:57.583Z,63.34
2023-03-27T09:31:57.434Z,63.44
2023-03-27T09:32:57.485Z,63.13
2023-03-27T09:33:57.754Z,63.26
2023-03-27T09:34:57.425Z,64.51
2023-03-27T09:35:57.600Z,65.85
2023-03-27T09:36:57.377Z,65.12
2023-03-27T09:37:57.372Z,63.89
2023-03-27T09:38:57.670Z,64.71
2023-03-27T09:39:57.359Z,63.19
2023-03-27T09:40:57.398Z,65.19
2023-03-27T09:41:57.323Z,66.60
2023-03-27T09:42:58.097Z,67.74
2023-03-27T09:43:57.623Z,68.36
2023-03-27T09:44:57.331Z,65.88
2023-03-27T09:45:57.366Z,63.29
2023-03-27T09:46:57.286Z,63.43
2023-03-27T09:47:57.300Z,65.19
2023-03-27T09:48:57.588Z,64.15
2023-03-27T09:49:57.237Z,65.81
2023-03-27T09:50:57.366Z,65.11
2023-03-27T09:51:57.227Z,65.94
2023-03-27T09:52:57.210Z,64.80
2023-03-27T09:53:57.544Z,66.46
2023-03-27T09:54:57.190Z,66.56
2023-03-27T09:55:57.176Z,64.73
2023-03-27T09:56:57.225Z,65.14
2023-03-27T09:57:57.154Z,65.14
2023-03-27T09:58:57.564Z,65.66
2023-03-27T09:59:57.145Z,65.25
2023-03-27T10:00:57.282Z,66.15
2023-03-27T10:01:57.116Z,65.84
2023-03-27T10:02:57.145Z,65.29
2023-03-27T10:03:57.549Z,65.08
2023-03-27T10:04:57.091Z,65.39
2023-03-27T10:05:57.069Z,64.64
2023-03-27T10:06:57.071Z,64.02
2023-03-27T10:07:57.047Z,64.12
2023-03-27T10:08:57.477Z,62.91
2023-03-27T10:09:57.029Z,64.56
2023-03-27T10:10:57.149Z,65.22
2023-03-27T10:11:57.008Z,66.35
2023-03-27T10:12:57.019Z,66.25
2023-03-27T10:13:57.351Z,67.08
2023-03-27T10:14:57.010Z,64.39
2023-03-27T10:15:56.980Z,66.66
2023-03-27T10:16:57.051Z,67.08
2023-03-27T10:17:56.994Z,67.36
2023-03-27T10:18:57.271Z,64.81
2023-03-27T10:19:56.937Z,63.68
2023-03-27T10:20:57.118Z,61.69
2023-03-27T10:21:56.904Z,62.48
2023-03-27T10:22:56.921Z,61.29
2023-03-27T10:23:57.191Z,60.36
2023-03-27T10:24:56.878Z,60.77
2023-03-27T10:25:56.883Z,60.16
2023-03-27T10:26:56.856Z,58.64
2023-03-27T10:27:56.840Z,59.90
2023-03-27T10:28:56.852Z,60.03
2023-03-27T10:29:56.816Z,62.85
2023-03-27T10:30:56.981Z,62.98
2023-03-27T10:31:56.867Z,63.09
2023-03-27T10:32:56.832Z,62.57
2023-03-27T10:33:57.303Z,63.81
2023-03-27T10:34:56.773Z,63.92
2023-03-27T10:35:56.836Z,63.81
2023-03-27T10:36:56.749Z,64.09
2023-03-27T10:37:56.736Z,66.57
2023-03-27T10:38:56.982Z,65.72
2023-03-27T10:39:56.722Z,65.48
2023-03-27T10:40:56.900Z,61.32
2023-03-27T10:41:56.703Z,63.69
2023-03-27T10:42:56.692Z,59.12
2023-03-27T10:43:56.995Z,58.92
2023-03-27T10:44:56.669Z,59.51
2023-03-27T10:45:56.671Z,57.37
2023-03-27T10:46:56.656Z,60.16
2023-03-27T10:47:56.695Z,61.29
2023-03-27T10:48:56.636Z,59.95
2023-03-27T10:49:57.208Z,59.77
2023-03-27T10:50:56.703Z,58.97
2023-03-27T10:51:56.586Z,60.21
2023-03-27T10:52:56.608Z,59.72
2023-03-27T10:53:56.665Z,60.47
2023-03-27T10:54:56.902Z,62.67
2023-03-27T10:55:56.568Z,67.15
2023-03-27T10:56:56.601Z,69.29
2023-03-27T10:57:56.526Z,72.77
2023-03-27T10:58:56.509Z,77.26
2023-03-27T10:59:56.822Z,79.83
2023-03-27T11:00:56.625Z,81.32
2023-03-27T11:01:56.532Z,82.87
2023-03-27T11:02:56.524Z,84.27
2023-03-27T11:03:56.539Z,84.89
2023-03-27T11:04:56.816Z,85.20
2023-03-27T11:05:56.437Z,86.13
2023-03-27T11:06:56.422Z,87.79
2023-03-27T11:07:56.416Z,87.38
2023-03-27T11:08:56.410Z,88.31
2023-03-27T11:09:56.573Z,88.94
2023-03-27T11:10:56.518Z,89.56
2023-03-27T11:11:56.373Z,88.10
2023-03-27T11:12:56.362Z,88.00
2023-03-27T11:13:56.356Z,89.36
2023-03-27T11:14:56.754Z,89.92
2023-03-27T11:15:56.330Z,89.39
2023-03-27T11:16:56.373Z,91.16
2023-03-27T11:17:56.340Z,91.10
2023-03-27T11:18:56.300Z,90.06
2023-03-27T11:19:56.963Z,89.83
2023-03-27T11:20:56.511Z,91.18
2023-03-27T11:21:56.272Z,90.50
2023-03-27T11:22:56.269Z,90.50
2023-03-27T11:23:56.285Z,91.53
2023-03-27T11:24:56.655Z,93.31
2023-03-27T11:25:56.227Z,92.85
2023-03-27T11:26:56.212Z,93.48
2023-03-27T11:27:56.208Z,94.37
2023-03-27T11:28:56.201Z,95.51
2023-03-27T11:29:56.367Z,94.74
2023-03-27T11:30:56.505Z,94.70
2023-03-27T11:31:56.189Z,94.28
2023-03-27T11:32:56.176Z,96.94
2023-03-27T11:33:56.155Z,96.89
2023-03-27T11:34:56.615Z,95.81
2023-03-27T11:35:56.159Z,91.76
2023-03-27T11:36:56.115Z,93.49
2023-03-27T11:37:56.104Z,91.27
2023-03-27T11:38:56.092Z,86.49
2023-03-27T11:39:56.463Z,87.12
2023-03-27T11:40:56.188Z,89.81
2023-03-27T11:41:56.076Z,91.95
2023-03-27T11:42:56.080Z,91.91
2023-03-27T11:43:56.059Z,86.52
2023-03-27T11:44:56.388Z,85.44
2023-03-27T11:45:56.049Z,85.71
2023-03-27T11:46:56.011Z,86.60
2023-03-27T11:47:56.013Z,84.50
2023-03-27T11:48:55.991Z,83.56
2023-03-27T11:49:56.753Z,80.71
2023-03-27T11:50:56.164Z,80.57
2023-03-27T11:51:55.963Z,82.64
2023-03-27T11:52:55.952Z,85.28
2023-03-27T11:53:55.948Z,86.11
2023-03-27T11:54:56.307Z,83.90
2023-03-27T11:55:55.921Z,84.73
2023-03-27T11:56:55.991Z,85.66
2023-03-27T11:57:55.904Z,81.42
2023-03-27T11:58:55.891Z,78.84
2023-03-27T11:59:56.348Z,80.46
2023-03-27T12:00:56.016Z,80.15
2023-03-27T12:01:55.922Z,81.59
2023-03-27T12:02:55.955Z,80.56
2023-03-27T12:03:55.911Z,82.59
2023-03-27T12:04:56.177Z,77.87
2023-03-27T12:05:55.822Z,79.63
2023-03-27T12:06:58.118Z,76.15
2023-03-27T12:07:55.799Z,79.36
2023-03-27T12:08:55.787Z,80.53
2023-03-27T12:09:56.627Z,75.15
2023-03-27T12:10:56.043Z,76.29
2023-03-27T12:11:55.762Z,74.05
2023-03-27T12:12:55.743Z,73.33
2023-03-27T12:14:01.604Z,72.81
2023-03-27T12:14:56.061Z,75.81
2023-03-27T12:15:55.715Z,71.95
2023-03-27T12:16:55.761Z,72.71
2023-03-27T12:17:55.818Z,67.65
2023-03-27T12:19:03.809Z,71.57
2023-03-27T12:19:56.473Z,67.54
2023-03-27T12:20:55.661Z,67.96
2023-03-27T12:21:55.662Z,69.48
2023-03-27T12:22:55.641Z,67.41
2023-03-27T12:23:55.636Z,63.59
2023-03-27T12:24:59.736Z,65.34
2023-03-27T12:25:55.616Z,68.30
2023-03-27T12:26:55.594Z,62.63
2023-03-27T12:27:55.595Z,60.88
2023-03-27T12:28:55.571Z,60.77
2023-03-27T12:29:56.297Z,60.23
2023-03-27T12:30:55.766Z,62.47
2023-03-27T12:31:55.573Z,58.32
2023-03-27T12:32:56.706Z,59.42
2023-03-27T12:33:55.543Z,60.38
2023-03-27T12:34:55.528Z,56.16
2023-03-27T12:35:55.526Z,57.60
2023-03-27T12:36:55.495Z,60.28
2023-03-27T12:37:55.481Z,58.91
2023-03-27T12:38:55.471Z,62.62
2023-03-27T12:39:55.505Z,60.53
2023-03-27T12:40:55.600Z,55.28
2023-03-27T12:41:55.437Z,57.24
2023-03-27T12:42:55.428Z,57.01
2023-03-27T12:43:55.418Z,57.10
2023-03-27T12:44:57.280Z,57.08
2023-03-27T12:45:55.398Z,54.30
2023-03-27T12:46:55.434Z,50.29
2023-03-27T12:47:55.411Z,53.38
2023-03-27T12:48:55.369Z,53.66
2023-03-27T12:49:55.374Z,50.37
2023-03-27T12:50:55.618Z,53.05
2023-03-27T12:51:55.336Z,52.09